Time;durP1;ratioP1;P1;durP2;ratioP2;P2;SDS_P1;SDS_P2;PMS_P1;PMS_P2;Temp;Humidity;BMP_temperature;BMP_pressure;BME280_temperature;BME280_humidity;BME280_pressure;Samples;Min_cycle;Max_cycle;Signal;HPM_P1;HPM_P2
2022/10/02 00:01:51;;;;;;;3.47;3.07;;;;;;;;;;5067887;28;20223;-64
2022/10/02 00:04:23;;;;;;;3.63;3.00;;;;;;;;;;5061495;28;20234;-64
2022/10/02 00:06:55;;;;;;;2.77;2.50;;;;;;;;;;5065157;28;20218;-64
2022/10/02 00:09:26;;;;;;;2.90;2.60;;;;;;;;;;5071775;28;20202;-64
2022/10/02 00:11:56;;;;;;;2.50;2.30;;;;;;;;;;5065801;28;20199;-64
2022/10/02 00:14:26;;;;;;;3.17;2.70;;;;;;;;;;5072059;28;20648;-64
2022/10/02 00:16:55;;;;;;;3.63;2.77;;;;;;;;;;5073080;28;20207;-64
2022/10/02 00:19:23;;;;;;;5.20;3.03;;;;;;;;;;5071745;28;20218;-64
2022/10/02 00:22:00;;;;;;;3.23;2.37;;;;;;;;;;5067373;28;20216;-64
2022/10/02 00:24:32;;;;;;;3.03;2.40;;;;;;;;;;5068227;28;20305;-64
2022/10/02 00:27:03;;;;;;;3.97;2.60;;;;;;;;;;5049049;28;20199;-64
2022/10/02 00:29:33;;;;;;;3.00;2.50;;;;;;;;;;5058503;28;20213;-64
2022/10/02 00:32:08;;;;;;;3.63;2.50;;;;;;;;;;5057093;28;20224;-64
2022/10/02 00:34:41;;;;;;;4.23;2.73;;;;;;;;;;5072536;28;20233;-64
2022/10/02 00:37:16;;;;;;;2.97;2.70;;;;;;;;;;5061121;28;20672;-64
2022/10/02 00:39:51;;;;;;;2.73;2.53;;;;;;;;;;5076154;28;20206;-64
2022/10/02 00:42:28;;;;;;;3.93;3.07;;;;;;;;;;5062691;28;20223;-64
2022/10/02 00:45:01;;;;;;;3.93;3.20;;;;;;;;;;5057057;28;20219;-64
2022/10/02 00:47:34;;;;;;;4.93;3.97;;;;;;;;;;5064833;28;20291;-64
2022/10/02 00:50:09;;;;;;;5.40;4.00;;;;;;;;;;5066647;28;20209;-64
2022/10/02 00:52:48;;;;;;;4.83;3.33;;;;;;;;;;5060676;28;20649;-64
2022/10/02 00:55:22;;;;;;;3.83;2.60;;;;;;;;;;5051884;28;20219;-64
2022/10/02 00:57:57;;;;;;;4.60;2.73;;;;;;;;;;5064717;28;20305;-64
2022/10/02 01:00:25;;;;;;;5.63;2.83;;;;;;;;;;5070363;28;20208;-64
2022/10/02 01:03:00;;;;;;;3.87;2.53;;;;;;;;;;5062910;28;20275;-64
2022/10/02 01:05:29;;;;;;;4.33;2.80;;;;;;;;;;5067237;28;20213;-63
2022/10/02 01:07:59;;;;;;;5.77;3.07;;;;;;;;;;5077188;28;20608;-64
2022/10/02 01:10:28;;;;;;;2.80;2.57;;;;;;;;;;5070890;28;20281;-64
2022/10/02 01:12:57;;;;;;;5.10;3.00;;;;;;;;;;5069707;28;20290;-64
2022/10/02 01:15:29;;;;;;;4.27;2.87;;;;;;;;;;5068078;28;20607;-64
2022/10/02 01:17:57;;;;;;;3.30;2.70;;;;;;;;;;5067993;28;20199;-64
2022/10/02 01:20:31;;;;;;;3.43;3.00;;;;;;;;;;5064146;28;20731;-64
2022/10/02 01:23:03;;;;;;;4.00;2.70;;;;;;;;;;5067934;28;20616;-64
2022/10/02 01:25:33;;;;;;;4.03;2.80;;;;;;;;;;5063385;28;20623;-63
2022/10/02 01:28:01;;;;;;;6.17;2.73;;;;;;;;;;5069741;28;20214;-64
2022/10/02 01:30:30;;;;;;;2.67;2.47;;;;;;;;;;5064653;28;20204;-64
2022/10/02 01:32:59;;;;;;;3.47;2.50;;;;;;;;;;5070035;28;20224;-64
2022/10/02 01:35:30;;;;;;;2.70;2.50;;;;;;;;;;5074696;28;20203;-64
2022/10/02 01:37:59;;;;;;;3.53;2.73;;;;;;;;;;5067606;28;20198;-64
2022/10/02 01:40:27;;;;;;;3.53;2.40;;;;;;;;;;5063720;28;20198;-64
2022/10/02 01:42:59;;;;;;;3.33;2.53;;;;;;;;;;5070629;28;20304;-64
2022/10/02 01:45:34;;;;;;;3.30;2.90;;;;;;;;;;5062818;28;20205;-64
2022/10/02 01:48:07;;;;;;;3.40;2.83;;;;;;;;;;5066873;28;20203;-64
2022/10/02 01:50:42;;;;;;;3.53;2.87;;;;;;;;;;5071986;28;20553;-64
2022/10/02 01:53:13;;;;;;;5.57;3.10;;;;;;;;;;5069124;28;20194;-64
2022/10/02 01:55:45;;;;;;;3.93;3.47;;;;;;;;;;5059210;28;20331;-64
2022/10/02 01:58:19;;;;;;;4.17;3.27;;;;;;;;;;5068556;28;20289;-64
2022/10/02 02:00:55;;;;;;;4.50;3.40;;;;;;;;;;5070129;28;20194;-64
2022/10/02 02:03:29;;;;;;;3.73;3.40;;;;;;;;;;5069301;28;20251;-64
2022/10/02 02:06:02;;;;;;;5.03;3.70;;;;;;;;;;5078758;28;20202;-64
2022/10/02 02:08:32;;;;;;;4.97;3.07;;;;;;;;;;5057504;28;20232;-64
2022/10/02 02:11:05;;;;;;;4.73;3.57;;;;;;;;;;5060471;28;20202;-64
2022/10/02 02:13:37;;;;;;;5.43;3.53;;;;;;;;;;5057801;28;20279;-64
2022/10/02 02:16:09;;;;;;;5.23;3.67;;;;;;;;;;5074350;28;20202;-64
2022/10/02 02:18:42;;;;;;;5.13;3.53;;;;;;;;;;5055412;28;20230;-64
2022/10/02 02:21:14;;;;;;;4.43;3.37;;;;;;;;;;5077723;28;20281;-64
2022/10/02 02:23:43;;;;;;;5.57;3.97;;;;;;;;;;5051904;28;20225;-64
2022/10/02 02:26:12;;;;;;;4.60;3.50;;;;;;;;;;5074326;28;20198;-64
2022/10/02 02:28:44;;;;;;;4.57;3.70;;;;;;;;;;5062657;28;20208;-64
2022/10/02 02:31:13;;;;;;;3.77;3.40;;;;;;;;;;5061359;28;20692;-64
2022/10/02 02:33:43;;;;;;;4.13;3.30;;;;;;;;;;5065343;28;20234;-64
2022/10/02 02:36:13;;;;;;;6.50;4.30;;;;;;;;;;5065813;28;20574;-64
2022/10/02 02:38:43;;;;;;;4.23;3.73;;;;;;;;;;5058960;28;20203;-64
2022/10/02 02:41:13;;;;;;;4.53;3.57;;;;;;;;;;5066400;28;20212;-64
2022/10/02 02:43:45;;;;;;;5.70;3.20;;;;;;;;;;5059165;28;20227;-64
2022/10/02 02:46:18;;;;;;;4.83;3.50;;;;;;;;;;5074138;28;20294;-64
2022/10/02 02:48:47;;;;;;;3.93;3.30;;;;;;;;;;5065274;28;20224;-64
2022/10/02 02:51:17;;;;;;;3.57;3.27;;;;;;;;;;5069598;28;20287;-64
2022/10/02 02:53:49;;;;;;;5.07;3.67;;;;;;;;;;5058069;28;20686;-61
2022/10/02 02:56:19;;;;;;;5.23;3.27;;;;;;;;;;5073523;28;20296;-63
2022/10/02 02:58:52;;;;;;;5.53;3.90;;;;;;;;;;5067444;28;20723;-64
2022/10/02 03:01:20;;;;;;;4.27;3.43;;;;;;;;;;5069011;28;20256;-64
2022/10/02 03:03:48;;;;;;;5.07;3.83;;;;;;;;;;5065177;28;20313;-64
2022/10/02 03:06:32;;;;;;;3.77;3.47;;;;;;;;;;5058207;28;20241;-64
2022/10/02 03:09:02;;;;;;;3.93;3.60;;;;;;;;;;5061977;28;20248;-64
2022/10/02 03:11:36;;;;;;;6.83;4.03;;;;;;;;;;5060100;28;20211;-61
2022/10/02 03:14:09;;;;;;;5.00;4.00;;;;;;;;;;5065727;28;20219;-64
2022/10/02 03:16:42;;;;;;;4.20;3.80;;;;;;;;;;5073462;28;20202;-62
2022/10/02 03:19:20;;;;;;;5.17;4.03;;;;;;;;;;5064317;28;20194;-63
2022/10/02 03:21:53;;;;;;;4.20;3.80;;;;;;;;;;5076783;28;20198;-63
2022/10/02 03:24:24;;;;;;;4.43;3.70;;;;;;;;;;5060811;28;20280;-63
2022/10/02 03:26:55;;;;;;;4.20;3.80;;;;;;;;;;5061213;28;20209;-62
2022/10/02 03:29:26;;;;;;;4.33;3.93;;;;;;;;;;5061171;28;20256;-63
2022/10/02 03:31:55;;;;;;;4.03;3.47;;;;;;;;;;5050275;28;20199;-63
2022/10/02 03:34:23;;;;;;;7.33;3.73;;;;;;;;;;5064888;28;20219;-63
2022/10/02 03:36:52;;;;;;;4.37;3.67;;;;;;;;;;5057162;28;20654;-63
2022/10/02 03:39:20;;;;;;;6.07;4.10;;;;;;;;;;5072279;28;20206;-63
2022/10/02 03:41:53;;;;;;;5.17;4.00;;;;;;;;;;5068516;28;20208;-63
2022/10/02 03:44:21;;;;;;;5.13;4.13;;;;;;;;;;5068410;28;20636;-63
2022/10/02 03:46:51;;;;;;;5.07;4.10;;;;;;;;;;5067957;28;20321;-63
2022/10/02 03:49:19;;;;;;;4.30;3.83;;;;;;;;;;5068332;28;20666;-63
2022/10/02 03:51:47;;;;;;;4.30;3.90;;;;;;;;;;5058264;28;20203;-63
2022/10/02 03:54:16;;;;;;;6.77;4.73;;;;;;;;;;5057287;28;20218;-63
2022/10/02 03:56:46;;;;;;;4.90;4.03;;;;;;;;;;5064863;28;20273;-63
2022/10/02 03:59:20;;;;;;;3.83;3.53;;;;;;;;;;5065089;28;20207;-63
2022/10/02 04:01:50;;;;;;;3.87;3.53;;;;;;;;;;5072715;28;20206;-63
2022/10/02 04:04:23;;;;;;;3.63;3.27;;;;;;;;;;5066539;28;20226;-63
2022/10/02 04:06:52;;;;;;;4.47;4.00;;;;;;;;;;5066455;28;20249;-63
2022/10/02 04:09:22;;;;;;;5.60;3.90;;;;;;;;;;5057463;28;20232;-63
2022/10/02 04:11:52;;;;;;;3.83;3.53;;;;;;;;;;5058301;28;20209;-63
2022/10/02 04:14:22;;;;;;;4.47;3.57;;;;;;;;;;5066746;28;20689;-63
2022/10/02 04:16:52;;;;;;;3.53;3.23;;;;;;;;;;5066355;28;20746;-63
2022/10/02 04:19:23;;;;;;;3.93;3.63;;;;;;;;;;5070751;28;20214;-63
2022/10/02 04:21:54;;;;;;;3.57;3.27;;;;;;;;;;5060026;28;20198;-63
2022/10/02 04:24:27;;;;;;;4.17;3.23;;;;;;;;;;5070659;28;20227;-63
2022/10/02 04:26:59;;;;;;;4.67;3.83;;;;;;;;;;5066489;28;20766;-63
2022/10/02 04:29:28;;;;;;;4.50;3.83;;;;;;;;;;5071595;28;20288;-63
2022/10/02 04:32:01;;;;;;;4.57;3.70;;;;;;;;;;5063925;28;20722;-63
2022/10/02 04:34:31;;;;;;;3.90;3.50;;;;;;;;;;5063320;28;20253;-63
2022/10/02 04:37:05;;;;;;;4.90;4.00;;;;;;;;;;5067843;28;21739;-63
2022/10/02 04:39:43;;;;;;;6.80;3.90;;;;;;;;;;5068527;28;20209;-63
2022/10/02 04:42:25;;;;;;;4.33;3.97;;;;;;;;;;5070125;28;20209;-63
2022/10/02 04:45:02;;;;;;;4.13;3.60;;;;;;;;;;5066212;28;20226;-63
2022/10/02 04:47:42;;;;;;;3.67;3.37;;;;;;;;;;5065729;28;20679;-63
2022/10/02 04:50:34;;;;;;;4.40;3.73;;;;;;;;;;5064188;28;20260;-63
2022/10/02 04:53:14;;;;;;;3.77;3.40;;;;;;;;;;5050405;28;20198;-63
2022/10/02 04:56:04;;;;;;;4.40;3.30;;;;;;;;;;5068593;28;20194;-63
2022/10/02 04:58:45;;;;;;;4.10;3.60;;;;;;;;;;5068762;28;20290;-63
2022/10/02 05:01:19;;;;;;;5.23;3.93;;;;;;;;;;5064772;28;20210;-63
2022/10/02 05:04:04;;;;;;;7.53;3.80;;;;;;;;;;5062796;28;20249;-63
2022/10/02 05:06:38;;;;;;;3.90;3.13;;;;;;;;;;5067324;28;20305;-63
2022/10/02 05:09:14;;;;;;;4.37;3.20;;;;;;;;;;5065517;28;20255;-63
2022/10/02 05:11:53;;;;;;;5.53;3.50;;;;;;;;;;5062342;28;22191;-63
2022/10/02 05:14:38;;;;;;;3.60;3.17;;;;;;;;;;5071468;28;20301;-63
2022/10/02 05:17:12;;;;;;;5.67;3.57;;;;;;;;;;5061508;28;20218;-63
2022/10/02 05:19:56;;;;;;;6.10;3.43;;;;;;;;;;5066854;28;20565;-63
2022/10/02 05:22:39;;;;;;;3.33;3.13;;;;;;;;;;5066465;28;20210;-63
2022/10/02 05:25:36;;;;;;;4.23;3.23;;;;;;;;;;5064987;28;20222;-63
2022/10/02 05:28:20;;;;;;;5.47;3.47;;;;;;;;;;5064765;28;20195;-63
2022/10/02 05:30:51;;;;;;;6.27;4.60;;;;;;;;;;5066868;28;20544;-63
2022/10/02 05:33:31;;;;;;;4.60;3.67;;;;;;;;;;5057218;28;20314;-63
2022/10/02 05:36:11;;;;;;;4.00;3.13;;;;;;;;;;5057598;28;20576;-63
2022/10/02 05:38:54;;;;;;;4.40;3.20;;;;;;;;;;5070284;28;20199;-63
2022/10/02 05:41:28;;;;;;;4.33;3.93;;;;;;;;;;5060295;28;20638;-63
2022/10/02 05:44:02;;;;;;;3.77;3.47;;;;;;;;;;5069008;28;20287;-63
2022/10/02 05:46:31;;;;;;;4.30;3.90;;;;;;;;;;5073283;28;20215;-63
2022/10/02 05:49:02;;;;;;;3.67;3.33;;;;;;;;;;5075024;28;20560;-63
2022/10/02 05:51:35;;;;;;;5.13;3.70;;;;;;;;;;5056075;28;20666;-63
2022/10/02 05:54:06;;;;;;;3.90;3.43;;;;;;;;;;5062408;28;20303;-63
2022/10/02 05:56:37;;;;;;;3.53;3.23;;;;;;;;;;5070193;28;20226;-63
2022/10/02 05:59:09;;;;;;;3.97;3.53;;;;;;;;;;5078697;28;20209;-63
2022/10/02 06:01:39;;;;;;;6.43;3.83;;;;;;;;;;5063591;28;20198;-63
2022/10/02 06:04:11;;;;;;;8.83;3.90;;;;;;;;;;5069854;28;20230;-63
2022/10/02 06:06:41;;;;;;;5.47;3.80;;;;;;;;;;5076818;28;20321;-63
2022/10/02 06:09:11;;;;;;;3.77;3.43;;;;;;;;;;5062775;28;20209;-63
2022/10/02 06:11:51;;;;;;;4.27;3.47;;;;;;;;;;5069678;28;20194;-63
2022/10/02 06:14:22;;;;;;;3.23;2.87;;;;;;;;;;5069969;28;20228;-63
2022/10/02 06:16:54;;;;;;;4.60;3.60;;;;;;;;;;5066529;28;20274;-63
2022/10/02 06:19:24;;;;;;;5.80;3.90;;;;;;;;;;5058858;28;20202;-63
2022/10/02 06:21:53;;;;;;;4.90;4.20;;;;;;;;;;5070383;28;20207;-63
2022/10/02 06:24:24;;;;;;;4.73;3.40;;;;;;;;;;5061810;28;20233;-63
2022/10/02 06:26:56;;;;;;;4.40;3.90;;;;;;;;;;5064534;28;20220;-63
2022/10/02 06:29:26;;;;;;;4.20;3.53;;;;;;;;;;5067150;28;20285;-63
2022/10/02 06:31:59;;;;;;;5.47;3.80;;;;;;;;;;5070989;28;20278;-63
2022/10/02 06:34:28;;;;;;;4.50;3.30;;;;;;;;;;5071752;28;20273;-63
2022/10/02 06:37:04;;;;;;;5.53;3.60;;;;;;;;;;5065992;28;20194;-63
2022/10/02 06:39:47;;;;;;;4.10;3.27;;;;;;;;;;5065933;28;20208;-63
2022/10/02 06:42:21;;;;;;;5.73;4.23;;;;;;;;;;5067928;28;20622;-63
2022/10/02 06:44:53;;;;;;;3.87;3.33;;;;;;;;;;5068721;28;20300;-63
2022/10/02 06:47:27;;;;;;;7.57;3.70;;;;;;;;;;5065673;28;20244;-62
2022/10/02 06:50:03;;;;;;;5.97;3.67;;;;;;;;;;5070329;28;20195;-62
2022/10/02 06:52:36;;;;;;;6.13;3.47;;;;;;;;;;5063608;28;20203;-63
2022/10/02 06:55:17;;;;;;;5.23;3.53;;;;;;;;;;5057385;28;20625;-63
2022/10/02 06:57:58;;;;;;;4.30;3.40;;;;;;;;;;5064501;28;20230;-63
2022/10/02 07:00:26;;;;;;;5.77;4.07;;;;;;;;;;5059732;28;20689;-64
2022/10/02 07:03:27;;;;;;;4.13;3.73;;;;;;;;;;5058666;28;20205;-63
2022/10/02 07:06:03;;;;;;;5.00;4.23;;;;;;;;;;5035249;28;20219;-63
2022/10/02 07:08:36;;;;;;;4.50;4.10;;;;;;;;;;5037208;28;20205;-63
2022/10/02 07:11:07;;;;;;;5.93;4.30;;;;;;;;;;5041286;28;20253;-63
2022/10/02 07:13:52;;;;;;;4.03;3.63;;;;;;;;;;5041998;28;20219;-63
2022/10/02 07:16:24;;;;;;;4.03;3.30;;;;;;;;;;5041326;28;20267;-63
2022/10/02 07:19:10;;;;;;;3.60;3.30;;;;;;;;;;5053172;28;20262;-63
2022/10/02 07:21:45;;;;;;;4.57;3.40;;;;;;;;;;5056251;28;20617;-63
2022/10/02 07:24:24;;;;;;;5.57;3.13;;;;;;;;;;5055095;28;20225;-63
2022/10/02 07:26:55;;;;;;;4.47;3.10;;;;;;;;;;5064329;28;20253;-63
2022/10/02 07:29:32;;;;;;;4.60;3.47;;;;;;;;;;5060314;28;20272;-63
2022/10/02 07:32:11;;;;;;;3.93;3.40;;;;;;;;;;5057756;28;20202;-63
2022/10/02 07:34:44;;;;;;;5.93;3.50;;;;;;;;;;5057258;28;20254;-63
2022/10/02 07:37:17;;;;;;;3.23;2.93;;;;;;;;;;5058240;28;20206;-63
2022/10/02 07:39:53;;;;;;;4.47;3.50;;;;;;;;;;5060872;28;20199;-63
2022/10/02 07:42:31;;;;;;;4.33;3.27;;;;;;;;;;5058479;28;20202;-63
2022/10/02 07:45:08;;;;;;;4.90;2.63;;;;;;;;;;5058654;28;20635;-63
2022/10/02 07:47:46;;;;;;;4.30;2.93;;;;;;;;;;5055783;28;20246;-63
2022/10/02 07:50:18;;;;;;;3.77;3.10;;;;;;;;;;5065246;28;20205;-64
2022/10/02 07:52:52;;;;;;;3.10;2.80;;;;;;;;;;5064854;28;20693;-63
2022/10/02 07:55:21;;;;;;;5.17;3.70;;;;;;;;;;5052526;28;20226;-63
2022/10/02 07:57:54;;;;;;;5.10;3.67;;;;;;;;;;5062558;28;20230;-63
2022/10/02 08:00:24;;;;;;;3.57;3.13;;;;;;;;;;5050285;28;20201;-63
2022/10/02 08:02:54;;;;;;;3.23;2.93;;;;;;;;;;5052508;28;20329;-63
2022/10/02 08:05:24;;;;;;;5.40;3.23;;;;;;;;;;5055619;28;20605;-63
2022/10/02 08:07:55;;;;;;;3.87;3.50;;;;;;;;;;5057169;28;20245;-63
2022/10/02 08:10:25;;;;;;;3.40;3.20;;;;;;;;;;5058751;28;20200;-63
2022/10/02 08:12:58;;;;;;;5.53;3.87;;;;;;;;;;5062118;28;20667;-63
2022/10/02 08:15:33;;;;;;;7.80;3.90;;;;;;;;;;5058913;28;20259;-63
2022/10/02 08:18:05;;;;;;;4.13;3.73;;;;;;;;;;5067018;28;20225;-63
2022/10/02 08:20:53;;;;;;;5.60;4.03;;;;;;;;;;5057936;28;20305;-63
2022/10/02 08:23:24;;;;;;;4.67;4.20;;;;;;;;;;5062754;28;20261;-63
2022/10/02 08:25:56;;;;;;;5.93;4.33;;;;;;;;;;5060365;28;20209;-63
2022/10/02 08:28:26;;;;;;;5.43;4.00;;;;;;;;;;5060363;28;20206;-63
2022/10/02 08:30:56;;;;;;;4.00;3.60;;;;;;;;;;5060892;28;20202;-63
2022/10/02 08:33:25;;;;;;;4.83;4.33;;;;;;;;;;5062650;28;20240;-63
2022/10/02 08:35:59;;;;;;;6.80;5.20;;;;;;;;;;5066482;28;20196;-63
2022/10/02 08:38:39;;;;;;;6.23;4.33;;;;;;;;;;5069413;28;20284;-63
2022/10/02 08:41:37;;;;;;;9.23;4.37;;;;;;;;;;5068493;28;20262;-64
2022/10/02 08:44:22;;;;;;;5.37;4.20;;;;;;;;;;5065256;28;20653;-63
2022/10/02 08:47:08;;;;;;;4.37;3.97;;;;;;;;;;5054969;28;20221;-64
2022/10/02 08:49:47;;;;;;;5.10;4.23;;;;;;;;;;5060135;28;20266;-63
2022/10/02 08:52:28;;;;;;;6.87;5.50;;;;;;;;;;5060993;28;20230;-63
2022/10/02 08:55:05;;;;;;;7.97;5.10;;;;;;;;;;5068677;28;20301;-64
2022/10/02 08:57:51;;;;;;;5.97;4.53;;;;;;;;;;5063860;28;20226;-64
2022/10/02 09:00:20;;;;;;;8.07;6.50;;;;;;;;;;5067483;28;20198;-64
2022/10/02 09:03:12;;;;;;;4.50;3.97;;;;;;;;;;5068027;28;20283;-64
2022/10/02 09:05:54;;;;;;;4.93;4.43;;;;;;;;;;5070596;28;20282;-64
2022/10/02 09:08:37;;;;;;;4.27;3.87;;;;;;;;;;5063575;28;20227;-64
2022/10/02 09:11:23;;;;;;;4.80;4.13;;;;;;;;;;5065168;28;20199;-64
2022/10/02 09:14:10;;;;;;;5.03;3.97;;;;;;;;;;5071219;28;20552;-63
2022/10/02 09:16:51;;;;;;;5.57;4.10;;;;;;;;;;5070025;28;20200;-64
2022/10/02 09:19:30;;;;;;;6.13;4.10;;;;;;;;;;5067737;28;20206;-63
2022/10/02 09:22:09;;;;;;;8.83;4.13;;;;;;;;;;5071764;28;20224;-64
2022/10/02 09:24:58;;;;;;;5.00;4.10;;;;;;;;;;5062457;28;20235;-64
2022/10/02 09:27:50;;;;;;;6.90;5.80;;;;;;;;;;5063318;28;20233;-64
2022/10/02 09:30:46;;;;;;;9.00;5.63;;;;;;;;;;5006402;28;20203;-64
2022/10/02 09:33:35;;;;;;;4.10;3.60;;;;;;;;;;5065408;28;20212;-64
2022/10/02 09:36:14;;;;;;;5.00;3.80;;;;;;;;;;5067064;28;20194;-64
2022/10/02 09:39:04;;;;;;;4.37;3.97;;;;;;;;;;5076103;28;20650;-64
2022/10/02 09:41:48;;;;;;;6.40;3.63;;;;;;;;;;5060912;28;20215;-63
2022/10/02 09:44:27;;;;;;;4.13;3.73;;;;;;;;;;5059285;28;20273;-64
2022/10/02 09:47:19;;;;;;;6.77;3.60;;;;;;;;;;5065677;28;20223;-64
2022/10/02 09:50:01;;;;;;;6.07;3.60;;;;;;;;;;5059745;28;20242;-64
2022/10/02 09:52:53;;;;;;;5.03;3.13;;;;;;;;;;5057176;28;20215;-65
2022/10/02 09:55:36;;;;;;;3.93;2.90;;;;;;;;;;5048608;28;20657;-64
2022/10/02 09:58:39;;;;;;;5.80;3.03;;;;;;;;;;5059561;28;20289;-63
2022/10/02 10:01:24;;;;;;;4.00;3.00;;;;;;;;;;4999045;28;20217;-64
2022/10/02 10:03:59;;;;;;;3.90;2.90;;;;;;;;;;4997337;28;20224;-63
2022/10/02 10:06:38;;;;;;;6.43;3.30;;;;;;;;;;5035505;28;20560;-64
2022/10/02 10:09:21;;;;;;;3.20;2.90;;;;;;;;;;5069926;28;20217;-64
2022/10/02 10:12:08;;;;;;;2.83;2.53;;;;;;;;;;5059083;28;20203;-64
2022/10/02 10:15:00;;;;;;;4.03;2.97;;;;;;;;;;5062659;28;20329;-63
2022/10/02 10:17:56;;;;;;;2.87;2.27;;;;;;;;;;5058718;28;20202;-63
2022/10/02 10:20:40;;;;;;;3.90;2.80;;;;;;;;;;5034698;28;20645;-64
2022/10/02 10:23:27;;;;;;;2.97;2.70;;;;;;;;;;5063021;28;20301;-64
2022/10/02 10:26:04;;;;;;;7.53;3.53;;;;;;;;;;5058135;28;20207;-63
2022/10/02 10:28:56;;;;;;;3.10;2.33;;;;;;;;;;5058433;28;20228;-64
2022/10/02 10:31:42;;;;;;;5.37;2.60;;;;;;;;;;5021427;28;20196;-64
2022/10/02 10:34:24;;;;;;;2.97;2.57;;;;;;;;;;5058449;28;20227;-65
2022/10/02 10:40:07;;;;;;;4.37;2.57;;;;;;;;;;5052853;28;20230;-65
2022/10/02 10:42:48;;;;;;;2.23;1.90;;;;;;;;;;5056504;28;20203;-64
2022/10/02 10:45:41;;;;;;;3.50;1.83;;;;;;;;;;5061915;28;20215;-64
2022/10/02 10:48:19;;;;;;;3.70;1.83;;;;;;;;;;5067115;28;20221;-64
2022/10/02 10:50:54;;;;;;;1.63;1.40;;;;;;;;;;5077936;28;20277;-64
2022/10/02 10:53:52;;;;;;;2.20;1.37;;;;;;;;;;5130582;27;20573;-64
2022/10/02 10:56:41;;;;;;;1.83;1.60;;;;;;;;;;5112103;28;20683;-64
2022/10/02 10:59:30;;;;;;;4.10;1.90;;;;;;;;;;5113409;28;20197;-64
2022/10/02 11:02:06;;;;;;;3.03;2.20;;;;;;;;;;5112706;28;20189;-64
2022/10/02 11:04:42;;;;;;;2.93;2.00;;;;;;;;;;5120350;28;20224;-64
2022/10/02 11:07:20;;;;;;;3.00;2.33;;;;;;;;;;5122971;28;20615;-64
2022/10/02 11:10:07;;;;;;;5.10;2.20;;;;;;;;;;5120753;28;20204;-64
2022/10/02 11:12:44;;;;;;;3.77;2.20;;;;;;;;;;5122800;28;20212;-64
2022/10/02 11:15:19;;;;;;;2.80;1.67;;;;;;;;;;5126386;27;20307;-64
2022/10/02 11:18:04;;;;;;;1.40;1.27;;;;;;;;;;5121928;28;20278;-64
2022/10/02 11:20:37;;;;;;;3.17;1.40;;;;;;;;;;5122343;28;20283;-64
2022/10/02 11:23:15;;;;;;;1.30;1.03;;;;;;;;;;5116991;28;20197;-63
2022/10/02 11:25:51;;;;;;;1.20;1.10;;;;;;;;;;5113938;28;20686;-64
2022/10/02 11:28:28;;;;;;;1.53;1.40;;;;;;;;;;5115205;28;20275;-64
2022/10/02 11:31:04;;;;;;;1.40;1.20;;;;;;;;;;5123397;28;20203;-63
2022/10/02 11:33:40;;;;;;;1.17;1.00;;;;;;;;;;5123025;27;20234;-64
2022/10/02 11:36:19;;;;;;;1.40;1.10;;;;;;;;;;5121394;28;20567;-62
2022/10/02 11:38:54;;;;;;;1.57;0.90;;;;;;;;;;5124222;28;20566;-62
2022/10/02 11:41:32;;;;;;;0.50;0.50;;;;;;;;;;5110610;28;20287;-63
2022/10/02 11:44:05;;;;;;;0.70;0.70;;;;;;;;;;5110103;28;20232;-63
2022/10/02 11:46:44;;;;;;;1.47;1.07;;;;;;;;;;5114068;28;20737;-64
2022/10/02 11:49:31;;;;;;;0.80;0.80;;;;;;;;;;5114120;28;20759;-63
2022/10/02 11:52:12;;;;;;;3.90;0.90;;;;;;;;;;5116514;28;20232;-64
2022/10/02 11:55:04;;;;;;;0.83;0.73;;;;;;;;;;5113796;28;20217;-64
2022/10/02 11:57:34;;;;;;;0.77;0.77;;;;;;;;;;5113801;28;20304;-64
2022/10/02 12:00:12;;;;;;;1.47;0.87;;;;;;;;;;5114110;28;20211;-64
2022/10/02 12:02:45;;;;;;;0.90;0.90;;;;;;;;;;5112705;28;20229;-63
2022/10/02 12:05:20;;;;;;;0.80;0.80;;;;;;;;;;5099600;28;20256;-64
2022/10/02 12:07:54;;;;;;;0.73;0.73;;;;;;;;;;5100768;28;20290;-64
2022/10/02 12:10:41;;;;;;;0.50;0.50;;;;;;;;;;5100642;28;20198;-64
2022/10/02 12:13:23;;;;;;;1.23;0.63;;;;;;;;;;5100143;28;20214;-65
2022/10/02 12:15:53;;;;;;;0.60;0.60;;;;;;;;;;5099674;28;20208;-64
2022/10/02 12:18:30;;;;;;;0.70;0.70;;;;;;;;;;5100758;28;20200;-64
2022/10/02 12:26:58;;;;;;;1.80;0.63;;;;;;;;;;5067666;28;20205;-64
2022/10/02 12:29:38;;;;;;;0.70;0.70;;;;;;;;;;5074176;28;20202;-63
2022/10/02 12:32:09;;;;;;;5.10;3.60;;;;;;;;;;5072656;28;20209;-64
2022/10/02 12:34:43;;;;;;;1.17;0.90;;;;;;;;;;5099404;28;20282;-65
2022/10/02 12:37:15;;;;;;;0.80;0.80;;;;;;;;;;5092699;28;20197;-63
2022/10/02 12:39:50;;;;;;;0.77;0.77;;;;;;;;;;5099761;28;20286;-63
2022/10/02 12:42:39;;;;;;;0.60;0.60;;;;;;;;;;5094957;28;20206;-65
2022/10/02 12:45:33;;;;;;;1.43;0.80;;;;;;;;;;5099510;28;20245;-64
2022/10/02 12:48:10;;;;;;;0.70;0.70;;;;;;;;;;5099204;28;20567;-64
2022/10/02 12:50:51;;;;;;;0.50;0.50;;;;;;;;;;5099424;28;20637;-64
2022/10/02 12:53:34;;;;;;;0.77;0.77;;;;;;;;;;5098994;28;20226;-63
2022/10/02 12:56:17;;;;;;;0.40;0.40;;;;;;;;;;5099435;28;20288;-64
2022/10/02 12:58:52;;;;;;;0.40;0.40;;;;;;;;;;5098973;28;20201;-63
2022/10/02 13:01:35;;;;;;;0.80;0.80;;;;;;;;;;5099296;28;20576;-64
2022/10/02 13:04:18;;;;;;;0.40;0.40;;;;;;;;;;5086221;28;20218;-64
2022/10/02 13:07:09;;;;;;;2.27;0.60;;;;;;;;;;5097030;28;20202;-64
2022/10/02 13:09:47;;;;;;;0.60;0.50;;;;;;;;;;5098984;28;20626;-63
2022/10/02 13:12:32;;;;;;;0.67;0.57;;;;;;;;;;5098460;28;20575;-64
2022/10/02 13:15:06;;;;;;;0.47;0.47;;;;;;;;;;5098005;28;20313;-63
2022/10/02 13:17:45;;;;;;;0.40;0.40;;;;;;;;;;5098359;28;20281;-65
2022/10/02 13:20:17;;;;;;;0.47;0.47;;;;;;;;;;5099004;28;20275;-64
2022/10/02 13:22:49;;;;;;;0.77;0.40;;;;;;;;;;5098997;28;20618;-64
2022/10/02 13:25:33;;;;;;;0.60;0.60;;;;;;;;;;5098719;28;20235;-64
2022/10/02 13:28:07;;;;;;;0.60;0.60;;;;;;;;;;5098873;28;20202;-64
2022/10/02 13:30:38;;;;;;;0.40;0.40;;;;;;;;;;5098554;28;20206;-65
2022/10/02 13:33:14;;;;;;;1.17;0.70;;;;;;;;;;5097866;28;20688;-65
2022/10/02 13:35:46;;;;;;;0.60;0.60;;;;;;;;;;5098454;28;20193;-64
2022/10/02 13:38:24;;;;;;;1.37;0.70;;;;;;;;;;5098334;28;20282;-64
2022/10/02 13:40:58;;;;;;;0.50;0.50;;;;;;;;;;5098283;28;20201;-65
2022/10/02 13:43:33;;;;;;;0.30;0.30;;;;;;;;;;5098044;28;20220;-63
2022/10/02 13:46:05;;;;;;;0.63;0.63;;;;;;;;;;5099123;28;20675;-63
2022/10/02 13:48:37;;;;;;;3.20;0.60;;;;;;;;;;5091385;28;20248;-65
2022/10/02 13:51:07;;;;;;;0.57;0.57;;;;;;;;;;5098272;28;20700;-65
2022/10/02 13:53:41;;;;;;;0.50;0.50;;;;;;;;;;5092807;28;20847;-64
2022/10/02 13:56:16;;;;;;;0.57;0.40;;;;;;;;;;5097751;28;20204;-64
2022/10/02 13:58:55;;;;;;;0.43;0.43;;;;;;;;;;5097845;28;20284;-64
2022/10/02 14:01:28;;;;;;;0.67;0.47;;;;;;;;;;5097767;28;20299;-65
2022/10/02 14:04:05;;;;;;;0.67;0.50;;;;;;;;;;5097410;28;20253;-65
2022/10/02 14:06:36;;;;;;;0.40;0.40;;;;;;;;;;5097785;28;20205;-64
2022/10/02 14:09:29;;;;;;;1.53;0.60;;;;;;;;;;5097759;28;20205;-65
2022/10/02 14:12:09;;;;;;;1.87;0.53;;;;;;;;;;5096748;28;20204;-65
2022/10/02 14:14:45;;;;;;;0.43;0.40;;;;;;;;;;5091197;28;20218;-65
2022/10/02 14:17:18;;;;;;;0.80;0.53;;;;;;;;;;5097632;28;20198;-65
2022/10/02 14:19:56;;;;;;;0.87;0.60;;;;;;;;;;5097456;28;20203;-63
2022/10/02 14:22:34;;;;;;;0.40;0.40;;;;;;;;;;5097318;28;20207;-64
2022/10/02 14:25:10;;;;;;;0.60;0.50;;;;;;;;;;5096748;28;20575;-64
2022/10/02 14:27:53;;;;;;;1.07;0.80;;;;;;;;;;5097123;28;20237;-65
2022/10/02 14:30:25;;;;;;;0.87;0.40;;;;;;;;;;5095199;28;20212;-66
2022/10/02 14:33:03;;;;;;;1.90;0.43;;;;;;;;;;5097024;28;20669;-65
2022/10/02 14:35:34;;;;;;;0.50;0.50;;;;;;;;;;5097489;28;20203;-65
2022/10/02 14:38:29;;;;;;;0.80;0.77;;;;;;;;;;5097458;28;20197;-65
2022/10/02 14:40:58;;;;;;;0.60;0.60;;;;;;;;;;5061442;28;20204;-65
2022/10/02 14:43:36;;;;;;;0.53;0.50;;;;;;;;;;5097144;28;20333;-65
2022/10/02 14:46:12;;;;;;;2.10;0.60;;;;;;;;;;5094295;28;20277;-65
2022/10/02 14:48:59;;;;;;;0.50;0.50;;;;;;;;;;5096621;28;20208;-65
2022/10/02 14:51:35;;;;;;;0.93;0.83;;;;;;;;;;5096706;28;20239;-64
2022/10/02 14:54:17;;;;;;;1.00;0.90;;;;;;;;;;5095237;28;20257;-65
2022/10/02 14:56:53;;;;;;;0.53;0.53;;;;;;;;;;5096650;28;20668;-65
2022/10/02 14:59:40;;;;;;;1.20;0.60;;;;;;;;;;5096988;28;20568;-64
2022/10/02 15:02:19;;;;;;;2.00;0.60;;;;;;;;;;5096747;28;20216;-64
2022/10/02 15:04:50;;;;;;;0.60;0.60;;;;;;;;;;5094423;28;20225;-64
2022/10/02 15:07:19;;;;;;;1.10;0.80;;;;;;;;;;5096894;28;20727;-64
2022/10/02 15:09:53;;;;;;;0.70;0.57;;;;;;;;;;5096860;28;20262;-65
2022/10/02 15:12:23;;;;;;;0.77;0.60;;;;;;;;;;5096589;28;20573;-64
2022/10/02 15:15:07;;;;;;;2.30;0.83;;;;;;;;;;5096008;28;20223;-64
2022/10/02 15:17:54;;;;;;;2.87;0.80;;;;;;;;;;5096775;28;20288;-64
2022/10/02 15:20:40;;;;;;;2.07;1.20;;;;;;;;;;5096613;28;20204;-64
2022/10/02 15:23:11;;;;;;;0.77;0.77;;;;;;;;;;5096642;28;20203;-64
2022/10/02 15:25:53;;;;;;;1.10;0.60;;;;;;;;;;5096417;28;20198;-64
2022/10/02 15:28:27;;;;;;;0.80;0.50;;;;;;;;;;5096541;28;20281;-65
2022/10/02 15:31:09;;;;;;;0.40;0.40;;;;;;;;;;5096759;28;20282;-65
2022/10/02 15:33:39;;;;;;;1.53;0.53;;;;;;;;;;5096154;28;20560;-65
2022/10/02 15:36:19;;;;;;;0.60;0.60;;;;;;;;;;5096338;28;20568;-65
2022/10/02 15:39:02;;;;;;;0.40;0.40;;;;;;;;;;5091779;28;20282;-64
2022/10/02 15:41:42;;;;;;;0.50;0.50;;;;;;;;;;5087396;28;20213;-65
2022/10/02 15:44:20;;;;;;;0.50;0.50;;;;;;;;;;5100366;28;20222;-64
2022/10/02 15:46:52;;;;;;;0.40;0.40;;;;;;;;;;5093097;28;20282;-64